createdAt,value
2023-05-05T00:24:30.463Z,3.05
2023-05-05T00:54:33.910Z,3.45
2023-05-05T01:25:00.239Z,3.10
2023-05-05T01:55:05.154Z,2.72
2023-05-05T02:25:09.258Z,2.83
2023-05-05T02:55:12.164Z,3.53
2023-05-05T03:25:15.299Z,3.78
2023-05-05T03:55:18.469Z,4.00
2023-05-05T04:25:21.360Z,4.45
2023-05-05T04:55:24.294Z,4.20
2023-05-05T05:25:27.437Z,4.10
2023-05-05T05:55:30.406Z,4.25
2023-05-05T06:25:33.361Z,4.05
2023-05-05T07:25:39.390Z,4.10
2023-05-05T07:55:42.491Z,3.90
2023-05-05T08:25:46.014Z,3.70
2023-05-05T08:55:51.064Z,3.20
2023-05-05T09:26:04.824Z,1.70
2023-05-05T09:56:08.547Z,1.75
2023-05-05T10:26:13.769Z,2.40
2023-05-05T10:56:22.277Z,0.90
2023-05-05T11:26:50.476Z,1.10
2023-05-05T11:56:54.590Z,0.70
2023-05-05T12:27:07.333Z,1.00
2023-05-05T12:57:14.416Z,1.00
2023-05-05T13:27:17.522Z,1.08
2023-05-05T13:57:20.511Z,0.90
2023-05-05T14:27:23.884Z,1.70
2023-05-05T14:57:26.973Z,2.08
2023-05-05T15:27:30.008Z,1.90
2023-05-05T15:57:33.194Z,1.17
2023-05-05T16:27:36.351Z,1.88
2023-05-05T16:57:39.444Z,0.98
2023-05-05T17:27:43.503Z,0.80
2023-05-05T17:57:46.562Z,0.70
2023-05-05T18:27:49.622Z,0.57
2023-05-05T18:57:52.606Z,1.40
2023-05-05T19:27:55.597Z,1.60
2023-05-05T19:57:58.613Z,1.50
2023-05-05T20:28:01.732Z,1.15
2023-05-05T20:58:05.433Z,1.20
2023-05-05T21:58:11.129Z,1.25
2023-05-05T22:28:14.087Z,1.80
2023-05-05T22:58:16.976Z,3.30
2023-05-05T23:28:20.126Z,2.22
2023-05-05T23:58:23.002Z,2.78
